Latest Weather Observations for Essendon Airport

IDV60901

Issued at 7:11 am EDT Thursday 8 December 2016 (issued every 10 minutes, with the page automatically refreshed every 10 minutes)

About weather observations | Map of Melbourne area stations | Latest observations for Melbourne area | Other Formats
Station Details ID: 086038 Name: ESSENDON AIRPORT Lat: -37.73 Lon: 144.91 Height: 78.4 m
Data from the previous 72 hours. | See also: Recent months at Essendon Airport
Date/Time
EDT
Temp
°C
App
Temp
°C
Dew
Point
°C
Rel
Hum
%
Delta-T
°C
Wind Press
QNH
hPa
Press
MSL
hPa
Rain since
9am
mm
Dir  Spd
km/h
Gust
km/h
Spd
kts
Gust
kts
08/07:02am 17.3 12.7 12.2 72 2.8 N 28 46 15 25 998.9 998.7 0.6
08/07:00am 17.5 12.4 12.0 70 3.1 N 30 41 16 22 998.9 998.7 0.4
08/06:30am 18.2 13.0 10.1 59 4.3 N 28 50 15 27 999.5 999.3 0.0
08/06:11am 20.1 12.7 6.8 42 6.7 N 35 54 19 29 999.6 999.4 0.0
08/06:00am 22.0 13.2 3.6 30 8.9 N 39 56 21 30 999.2 999.0 0.0
08/05:30am 23.8 15.5 2.0 24 10.4 N 35 65 19 35 999.0 998.8 0.0
08/05:26am 24.2 15.2 2.4 24 10.5 N 39 65 21 35 998.6 998.4 0.0
08/05:00am 24.0 14.9 1.6 23 10.6 N 39 56 21 30 998.0 997.8 0.0
08/04:30am 23.9 13.3 0.9 22 10.7 N 46 67 25 36 997.6 997.4 0.0
08/04:00am 23.9 12.6 1.5 23 10.6 N 50 70 27 38 997.5 997.3 0.0
08/03:59am 23.9 12.6 1.5 23 10.5 N 50 70 27 38 997.5 997.3 0.0
08/03:54am 24.2 14.6 1.2 22 10.8 N 41 70 22 38 997.3 997.1 0.0
08/03:42am 23.5 15.7 1.8 24 10.2 NNE 32 54 17 29 998.0 997.8 0.0
08/03:30am 22.9 15.1 1.9 25 9.9 N 32 44 17 24 998.8 998.6 0.0
08/03:00am 22.6 17.1 2.1 26 9.7 NNE 20 35 11 19 999.6 999.4 0.0
08/02:30am 23.1 16.1 2.0 25 10.0 NNE 28 39 15 21 999.8 999.6 0.0
08/02:00am 22.6 15.7 2.7 27 9.5 NNE 28 44 15 24 1001.2 1001.1 0.0
08/01:30am 22.6 16.1 2.7 27 9.5 NNE 26 43 14 23 1002.1 1001.9 0.0
08/01:00am 22.5 16.4 2.6 27 9.5 NNE 24 37 13 20 1002.8 1002.6 0.0
08/12:30am 23.2 16.7 2.7 26 9.8 N 26 39 14 21 1003.9 1003.7 0.0
08/12:00am 23.5 17.3 2.4 25 10.1 N 24 37 13 20 1004.5 1004.3 0.0
 
Date/Time
EDT
Temp
°C
App
Temp
°C
Dew
Point
°C
Rel
Hum
%
Delta-T
°C
Wind Press
QNH
hPa
Press
MSL
hPa
Rain since
9am
mm
Dir  Spd
km/h
Gust
km/h
Spd
kts
Gust
kts
07/11:30pm 23.1 17.6 2.0 25 10.0 N 20 30 11 16 1005.1 1004.9 0.0
07/11:00pm 22.0 17.2 2.7 28 9.2 N 17 22 9 12 1005.3 1005.1 0.0
07/10:30pm 21.9 17.9 3.1 29 9.0 N 13 17 7 9 1005.7 1005.5 0.0
07/10:00pm 21.8 18.2 3.0 29 9.0 N 11 13 6 7 1006.2 1006.0 0.0
07/09:30pm 22.1 18.6 3.3 29 9.0 N 11 13 6 7 1006.5 1006.3 0.0
07/09:00pm 22.9 19.2 2.4 26 9.8 N 11 13 6 7 1006.9 1006.7 0.0
07/08:30pm 24.1 20.3 1.7 23 10.6 N 11 17 6 9 1007.0 1006.8 0.0
07/08:00pm 25.9 21.1 0.5 19 11.9 N 15 20 8 11 1007.2 1007.0 0.0
07/07:30pm 27.1 21.3 0.0 17 12.7 NNW 20 28 11 15 1007.3 1007.1 0.0
07/07:00pm 27.4 21.7 -0.6 16 13.1 NNW 19 30 10 16 1007.5 1007.3 0.0
07/06:30pm 27.9 21.3 -0.2 16 13.2 NNW 24 35 13 19 1007.8 1007.6 0.0
07/06:00pm 28.0 21.8 -0.1 16 13.3 NNW 22 32 12 17 1008.1 1007.9 0.0
07/05:30pm 28.6 22.7 2.0 18 13.1 NNW 22 33 12 18 1008.5 1008.3 0.0
07/05:00pm 28.6 23.0 3.5 20 12.7 NNW 22 33 12 18 1009.0 1008.8 0.0
07/04:30pm 27.8 22.5 2.8 20 12.4 N 20 32 11 17 1009.4 1009.2 0.0
07/04:00pm 27.8 21.8 3.5 21 12.2 NW 24 35 13 19 1009.9 1009.7 0.0
07/03:30pm 27.7 22.9 2.7 20 12.4 NW 17 32 9 17 1010.4 1010.2 0.0
07/03:14pm 27.8 23.2 5.4 24 11.6 NE 19 50 10 27 1010.4 1010.2 0.0
07/03:00pm 27.0 25.2 8.0 30 10.3 ESE 7 15 4 8 1010.9 1010.7 0.0
07/02:30pm 26.1 23.4 7.2 30 10.0 NNE 11 20 6 11 1011.6 1011.4 0.0
07/02:00pm 25.2 21.9 6.4 30 9.8 NNW 13 26 7 14 1012.2 1012.1 0.0
07/01:30pm 24.0 20.6 5.8 31 9.3 N 13 20 7 11 1012.8 1012.7 0.0
07/01:00pm 23.0 20.2 5.0 31 9.0 SE 9 20 5 11 1013.4 1013.3 0.0
07/12:30pm 22.1 19.2 4.7 32 8.6 NNW 9 17 5 9 1014.0 1013.9 0.0
07/12:00pm 21.9 18.6 6.6 37 7.8 E 13 19 7 10 1014.3 1014.2 0.0
07/11:30am 20.8 17.6 5.2 36 7.7 ESE 11 22 6 12 1014.6 1014.5 0.0
07/11:00am 20.7 18.6 6.6 40 7.1 NNE 7 15 4 8 1014.9 1014.8 0.0
07/10:30am 19.5 17.2 7.6 46 6.1 NE 9 17 5 9 1015.0 1014.9 0.0
07/10:00am 18.2 15.9 7.6 50 5.4 ENE 9 15 5 8 1015.5 1015.3 0.0
07/09:30am 16.9 15.5 8.8 59 4.2 NE 6 11 3 6 1015.7 1015.5 0.0
07/09:00am 15.3 13.6 8.5 64 3.5 E 7 11 4 6 1015.7 1015.5 0.0
07/08:30am 14.4 13.0 8.8 69 2.8 N 6 9 3 5 1015.7 1015.5 0.0
07/08:00am 14.1 13.1 8.9 71 2.6 NE 4 7 2 4 1015.7 1015.5 0.0
07/07:30am 12.0 10.5 9.0 82 1.5 NE 7 9 4 5 1015.5 1015.3 0.0
07/07:00am 10.4 9.7 8.5 88 0.9 NW 2 7 1 4 1015.6 1015.4 0.0
07/06:30am 8.8 7.0 7.3 90 0.7 NW 6 7 3 4 1015.5 1015.3 0.0
07/06:00am 8.7 6.3 7.2 90 0.7 NW 9 9 5 5 1015.3 1015.1 0.0
07/05:30am 8.5 6.1 7.1 91 0.7 NNW 9 11 5 6 1014.9 1014.8 0.0
07/05:00am 8.6 6.2 7.1 90 0.7 NNW 9 9 5 5 1014.6 1014.5 0.0
07/04:30am 8.7 6.3 7.0 89 0.8 NNW 9 9 5 5 1014.4 1014.3 0.0
07/04:00am 8.8 6.7 6.8 87 0.9 NW 7 9 4 5 1014.3 1014.2 0.0
07/03:30am 9.3 7.3 6.9 85 1.1 NW 7 9 4 5 1014.4 1014.3 0.0
07/03:00am 10.3 8.4 7.4 82 1.4 NW 7 9 4 5 1014.6 1014.5 0.0
07/02:30am 10.4 9.1 7.5 82 1.4 NW 4 7 2 4 1014.9 1014.8 0.0
07/02:00am 10.5 9.8 6.8 78 1.8 CALM 0 0 0 0 1015.3 1015.1 0.0
07/01:30am 11.3 10.0 7.8 79 1.7 ENE 4 6 2 3 1015.4 1015.2 0.0
07/01:00am 10.9 9.1 7.2 78 1.8 ENE 6 7 3 4 1015.5 1015.3 0.0
07/12:30am 11.2 9.3 7.5 78 1.8 ENE 7 7 4 4 1015.9 1015.7 0.0
07/12:00am 12.2 10.0 7.7 74 2.2 ESE 9 11 5 6 1016.1 1015.9 0.0
 
Date/Time
EDT
Temp
°C
App
Temp
°C
Dew
Point
°C
Rel
Hum
%
Delta-T
°C
Wind Press
QNH
hPa
Press
MSL
hPa
Rain since
9am
mm
Dir  Spd
km/h
Gust
km/h
Spd
kts
Gust
kts
06/11:30pm 12.3 10.3 7.2 71 2.5 ESE 7 11 4 6 1016.0 1015.8 0.0
06/11:00pm 13.4 10.4 7.6 68 2.9 SSW 13 17 7 9 1016.2 1016.0 0.0
06/10:30pm 13.9 10.9 7.7 66 3.1 SSW 13 17 7 9 1016.1 1015.9 0.0
06/10:00pm 14.1 10.8 7.9 66 3.1 SSW 15 20 8 11 1016.1 1015.9 0.0
06/09:30pm 14.4 10.7 8.1 66 3.2 S 17 24 9 13 1015.6 1015.4 0.0
06/09:00pm 14.7 10.8 8.6 67 3.1 S 19 28 10 15 1015.0 1014.9 0.0
06/08:30pm 15.0 11.1 8.5 65 3.3 S 19 26 10 14 1015.0 1014.9 0.0
06/08:00pm 15.7 10.9 8.7 63 3.6 S 24 32 13 17 1014.8 1014.7 0.0
06/07:30pm 16.7 11.3 8.1 57 4.4 S 26 35 14 19 1014.4 1014.3 0.0
06/07:00pm 17.3 11.9 7.9 54 4.8 S 26 33 14 18 1014.1 1014.0 0.0
06/06:30pm 18.0 12.5 7.4 50 5.4 S 26 32 14 17 1013.9 1013.8 0.0
06/06:00pm 18.7 13.6 7.8 49 5.6 SSW 24 33 13 18 1013.6 1013.5 0.0
06/05:30pm 19.2 13.8 7.9 48 5.8 SSW 26 33 14 18 1013.3 1013.2 0.0
06/05:00pm 19.4 13.6 7.8 47 6.0 S 28 32 15 17 1013.1 1013.0 0.0
06/04:30pm 19.8 14.6 7.2 44 6.4 S 24 32 13 17 1013.0 1012.9 0.0
06/04:00pm 21.5 17.5 8.4 43 6.9 S 19 32 10 17 1013.0 1012.9 0.0
06/03:30pm 20.9 17.4 8.9 46 6.4 S 17 24 9 13 1013.1 1013.0 0.0
06/03:00pm 20.0 16.4 8.4 47 6.1 S 17 30 9 16 1013.3 1013.2 0.0
06/02:30pm 19.3 14.5 8.9 51 5.5 S 24 30 13 16 1013.4 1013.3 0.0
06/02:00pm 19.1 16.7 8.7 51 5.4 S 11 20 6 11 1013.3 1013.2 0.0
06/01:30pm 18.6 15.6 9.4 55 4.9 SSE 15 24 8 13 1013.7 1013.6 0.0
06/01:00pm 19.6 16.7 11.1 58 4.7 S 17 28 9 15 1013.7 1013.6 0.0
06/12:30pm 19.6 17.9 11.1 58 4.7 SW 11 20 6 11 1013.8 1013.7 0.0
06/12:00pm 18.5 17.0 10.6 60 4.3 SW 9 19 5 10 1013.9 1013.8 0.0
06/11:30am 17.6 16.5 10.5 63 3.8 SSE 7 11 4 6 1014.1 1014.0 0.0
06/11:00am 16.4 15.2 10.3 67 3.2 SSW 7 11 4 6 1013.9 1013.8 0.0
06/10:30am 16.7 15.3 10.8 68 3.2 S 9 15 5 8 1014.0 1013.9 0.0
06/10:00am 16.4 14.6 10.7 69 3.0 WSW 11 17 6 9 1014.2 1014.1 0.0
06/09:30am 15.7 13.8 10.5 71 2.8 SW 11 17 6 9 1014.5 1014.4 0.0
06/09:00am 15.1 12.8 10.5 74 2.4 SW 13 15 7 8 1014.2 1014.1 0.0
06/08:30am 15.0 13.0 10.0 72 2.6 SSW 11 15 6 8 1014.1 1014.0 0.0
06/08:00am 14.9 13.2 9.7 71 2.7 SW 9 13 5 7 1013.8 1013.7 0.0
06/07:30am 14.5 13.2 9.9 74 2.4 SW 7 11 4 6 1013.8 1013.7 0.0
06/07:00am 13.6 13.7 10.2 80 1.8 CALM 0 0 0 0 1013.5 1013.4 0.0
06/06:30am 12.5 12.3 9.1 80 1.7 CALM 0 0 0 0 1013.4 1013.3 0.0
06/06:00am 11.5 10.4 8.5 82 1.5 NE 4 7 2 4 1012.5 1012.4 0.0
06/05:30am 11.9 11.6 8.7 81 1.6 CALM 0 0 0 0 1012.6 1012.5 0.0
06/05:00am 12.2 11.2 8.7 79 1.7 E 4 6 2 3 1012.1 1012.0 0.0
06/04:30am 12.9 12.6 8.8 76 2.1 CALM 0 0 0 0 1012.0 1011.9 0.0
06/04:00am 13.5 12.1 9.0 74 2.3 SE 6 9 3 5 1011.9 1011.7 0.0
06/03:30am 13.4 11.4 8.5 72 2.5 ESE 9 11 5 6 1011.3 1011.1 0.0
06/03:00am 13.5 11.0 8.1 70 2.7 SE 11 15 6 8 1011.9 1011.7 0.0
06/02:30am 13.4 11.3 8.3 71 2.5 SSE 9 13 5 7 1012.4 1012.3 0.0
06/02:00am 13.5 10.7 8.6 72 2.5 SE 13 17 7 9 1012.8 1012.7 0.0
06/01:30am 13.6 10.9 8.9 73 2.4 SE 13 17 7 9 1012.7 1012.6 0.0
06/01:00am 13.6 11.7 8.9 73 2.4 SE 9 13 5 7 1013.3 1013.2 0.0
06/12:30am 13.7 11.0 9.0 73 2.4 SSE 13 20 7 11 1013.0 1012.9 0.0
06/12:00am 13.9 10.9 9.1 73 2.4 SE 15 20 8 11 1013.3 1013.2 0.0
 
Date/Time
EDT
Temp
°C
App
Temp
°C
Dew
Point
°C
Rel
Hum
%
Delta-T
°C
Wind Press
QNH
hPa
Press
MSL
hPa
Rain since
9am
mm
Dir  Spd
km/h
Gust
km/h
Spd
kts
Gust
kts
05/11:30pm 14.1 11.1 9.3 73 2.5 SSE 15 19 8 10 1013.6 1013.5 0.0
05/11:00pm 14.6 11.4 9.8 73 2.5 S 17 20 9 11 1014.0 1013.9 0.0
05/10:30pm 14.9 11.4 10.3 74 2.4 S 19 24 10 13 1014.4 1014.3 0.0
05/10:00pm 15.2 11.2 10.6 74 2.4 S 22 28 12 15 1015.3 1015.1 0.0
05/09:30pm 15.2 11.5 10.2 72 2.6 S 20 28 11 15 1014.6 1014.5 0.0
05/09:00pm 15.6 11.6 10.6 72 2.7 S 22 30 12 16 1014.4 1014.3 0.0
05/08:30pm 15.5 11.2 10.7 73 2.6 S 24 32 13 17 1013.4 1013.3 0.0
05/08:00pm 15.5 11.2 10.9 74 2.5 S 24 32 13 17 1013.4 1013.3 0.0
05/07:30pm 15.8 10.8 10.8 72 2.7 SSW 28 33 15 18 1013.5 1013.4 0.0
05/07:00pm 16.6 12.4 11.1 70 3.0 S 24 33 13 18 1013.2 1013.1 0.0
05/06:30pm 17.4 13.2 11.0 66 3.5 S 24 33 13 18 1012.8 1012.7 0.0
05/06:00pm 18.2 13.5 10.8 62 4.0 S 26 32 14 17 1012.3 1012.2 0.0
05/05:30pm 18.0 13.1 9.9 59 4.3 S 26 32 14 17 1012.0 1011.9 0.0
05/05:00pm 18.3 13.2 9.1 55 4.8 S 26 35 14 19 1012.0 1011.9 0.0
05/04:30pm 19.3 14.7 9.8 54 5.1 S 24 32 13 17 1012.0 1011.9 0.0
05/04:00pm 20.6 16.0 9.8 50 5.8 SSW 24 32 13 17 1012.2 1012.1 0.0
05/03:30pm 21.5 17.5 10.3 49 6.1 S 22 30 12 16 1011.9 1011.7 0.0
05/03:00pm 21.5 17.5 10.3 49 6.1 S 22 30 12 16 1011.5 1011.3 0.0
05/02:30pm 21.3 17.0 9.2 46 6.5 S 22 35 12 19 1011.7 1011.5 0.0
05/02:00pm 21.4 17.5 9.6 47 6.4 S 20 32 11 17 1012.0 1011.9 0.0
05/01:30pm 20.8 16.8 9.1 47 6.2 S 20 28 11 15 1012.0 1011.9 0.0
05/01:00pm 21.7 19.4 10.5 49 6.1 SSW 13 24 7 13 1011.7 1011.5 0.0
05/12:30pm 21.1 18.3 11.2 53 5.5 S 17 24 9 13 1011.8 1011.6 0.0
05/12:00pm 19.5 16.0 10.2 55 5.0 S 19 28 10 15 1012.3 1012.2 0.0
05/11:30am 18.5 15.2 9.6 56 4.7 SW 17 28 9 15 1012.4 1012.3 0.0
05/11:00am 18.1 15.5 10.7 62 4.0 SW 15 20 8 11 1012.5 1012.4 0.0
05/10:30am 17.0 14.4 10.6 66 3.4 SW 15 20 8 11 1012.4 1012.3 0.0
05/10:00am 16.9 13.5 10.7 67 3.3 SW 19 26 10 14 1012.2 1012.1 0.0
05/09:30am 16.7 13.2 11.0 69 3.1 SW 20 28 11 15 1012.1 1012.0 0.0
05/09:00am 17.0 13.8 11.3 69 3.1 SW 19 28 10 15 1011.9 1011.7 3.0
05/08:30am 16.6 13.4 11.3 71 2.9 SSW 19 24 10 13 1011.2 1011.0 3.0
05/08:00am 16.2 12.2 10.5 69 3.0 WSW 22 30 12 16 1010.8 1010.6 3.0
05/07:30am 16.3 11.9 10.4 68 3.1 WSW 24 32 13 17 1010.3 1010.1 3.0

Latest Capital City Observations: Canberra | Sydney | Melbourne | Brisbane | Adelaide | Perth | Hobart | Darwin

Other Formats:

Comma delimited format used in spreadsheet applications
http://www.bom.gov.au/fwo/IDV60901/IDV60901.95866.axf

JavaScript Object Notation format (JSON) in row-major order
http://www.bom.gov.au/fwo/IDV60901/IDV60901.95866.json